Time;durP1;ratioP1;P1;durP2;ratioP2;P2;SDS_P1;SDS_P2;PMS_P1;PMS_P2;Temp;Humidity;BMP_temperature;BMP_pressure;BME280_temperature;BME280_humidity;BME280_pressure;Samples;Min_cycle;Max_cycle;Signal;HPM_P1;HPM_P2
2021/09/25 00:00:24;;;;;;;8.07;7.28;;;16.60;99.90;;;;;;5092294;28;20192;-61
2021/09/25 00:02:52;;;;;;;7.90;6.93;;;16.60;99.90;;;;;;5089293;28;20267;-61
2021/09/25 00:05:20;;;;;;;7.03;6.38;;;16.60;99.90;;;;;;5092332;28;20192;-61
2021/09/25 00:07:48;;;;;;;5.65;5.15;;;16.60;99.90;;;;;;5091786;28;20248;-62
2021/09/25 00:10:16;;;;;;;6.07;5.20;;;16.60;99.90;;;;;;5091829;28;20188;-62
2021/09/25 00:12:44;;;;;;;5.50;4.90;;;16.60;99.90;;;;;;5095076;28;20291;-62
2021/09/25 00:15:13;;;;;;;5.50;5.00;;;16.60;99.90;;;;;;5096067;28;20283;-61
2021/09/25 00:17:42;;;;;;;5.38;4.88;;;16.50;99.90;;;;;;5095812;28;20219;-62
2021/09/25 00:20:11;;;;;;;5.85;5.20;;;16.50;99.90;;;;;;5095919;28;20810;-63
2021/09/25 00:22:39;;;;;;;7.10;4.65;;;16.50;99.90;;;;;;5095745;28;20694;-60
2021/09/25 00:25:07;;;;;;;4.78;4.28;;;16.60;99.90;;;;;;5096219;28;20207;-62
2021/09/25 00:27:35;;;;;;;5.47;4.30;;;16.60;99.90;;;;;;5096080;28;20201;-62
2021/09/25 00:30:05;;;;;;;5.53;4.22;;;16.60;99.90;;;;;;5096135;28;20237;-62
2021/09/25 00:32:34;;;;;;;4.80;4.30;;;16.60;99.90;;;;;;5095612;28;20203;-62
2021/09/25 00:35:03;;;;;;;5.00;4.18;;;16.60;99.90;;;;;;5095801;28;20200;-61
2021/09/25 00:37:31;;;;;;;4.50;4.10;;;16.60;99.90;;;;;;5095750;28;20290;-62
2021/09/25 00:39:59;;;;;;;4.55;4.15;;;16.60;99.90;;;;;;5095883;28;20223;-61
2021/09/25 00:42:27;;;;;;;4.10;3.70;;;16.70;99.90;;;;;;5095548;28;20623;-62
2021/09/25 00:44:54;;;;;;;5.45;4.25;;;16.70;99.90;;;;;;5095845;28;20310;-62
2021/09/25 00:47:24;;;;;;;4.07;3.67;;;16.60;99.90;;;;;;5094864;28;20648;-61
2021/09/25 00:49:52;;;;;;;4.53;3.80;;;16.60;99.90;;;;;;5095635;28;20604;-61
2021/09/25 00:52:21;;;;;;;4.05;3.75;;;16.60;99.90;;;;;;5095161;28;20201;-62
2021/09/25 00:54:49;;;;;;;5.03;3.55;;;16.60;99.90;;;;;;5095220;28;20668;-61
2021/09/25 00:57:18;;;;;;;4.28;3.35;;;16.50;99.90;;;;;;5095500;28;20203;-61
2021/09/25 00:59:46;;;;;;;4.38;3.60;;;16.50;99.90;;;;;;5095160;28;20688;-62
2021/09/25 01:02:17;;;;;;;4.10;3.53;;;16.50;99.90;;;;;;5094992;28;20204;-61
2021/09/25 01:04:45;;;;;;;4.20;3.40;;;16.50;99.90;;;;;;5095439;28;20180;-61
2021/09/25 01:07:13;;;;;;;3.90;3.25;;;16.50;99.90;;;;;;5094970;28;20767;-62
2021/09/25 01:09:43;;;;;;;3.63;3.33;;;16.50;99.90;;;;;;5094930;28;20230;-62
2021/09/25 01:12:11;;;;;;;3.65;3.35;;;16.50;99.90;;;;;;5095300;28;20200;-62
2021/09/25 01:14:38;;;;;;;3.78;3.47;;;16.50;99.90;;;;;;5095091;28;20199;-61
2021/09/25 01:17:09;;;;;;;3.92;3.58;;;16.50;99.90;;;;;;5094518;28;20240;-61
2021/09/25 01:19:37;;;;;;;3.90;2.88;;;16.50;99.90;;;;;;5095012;28;20279;-62
2021/09/25 01:22:07;;;;;;;4.10;3.20;;;16.50;99.90;;;;;;5094740;28;20204;-62
2021/09/25 01:24:35;;;;;;;3.20;2.90;;;16.40;99.90;;;;;;5094027;28;20905;-61
2021/09/25 01:27:04;;;;;;;3.55;2.92;;;16.40;99.90;;;;;;5094971;28;20294;-61
2021/09/25 01:29:33;;;;;;;3.40;3.10;;;16.50;99.90;;;;;;5094629;28;20200;-61
2021/09/25 01:32:02;;;;;;;3.42;3.15;;;16.50;99.90;;;;;;5094215;28;20220;-61
2021/09/25 01:34:30;;;;;;;3.28;3.05;;;16.50;99.90;;;;;;5094813;28;20299;-62
2021/09/25 01:36:58;;;;;;;6.82;3.10;;;16.50;99.90;;;;;;5094663;28;20200;-61
2021/09/25 01:39:27;;;;;;;3.40;3.10;;;16.50;99.90;;;;;;5094673;28;20215;-62
2021/09/25 01:41:57;;;;;;;3.88;3.13;;;16.40;99.90;;;;;;5094701;28;20196;-60
2021/09/25 01:44:26;;;;;;;4.53;3.50;;;16.40;99.90;;;;;;5094706;28;20287;-62
2021/09/25 01:46:54;;;;;;;4.03;3.28;;;16.40;99.90;;;;;;5094157;28;20231;-62
2021/09/25 01:49:42;;;;;;;3.42;3.10;;;16.40;99.90;;;;;;5094577;28;20185;-61
2021/09/25 01:52:10;;;;;;;3.08;2.78;;;16.30;99.90;;;;;;5094406;28;20300;-60
2021/09/25 01:54:39;;;;;;;3.25;2.95;;;16.30;99.90;;;;;;5094278;28;20202;-61
2021/09/25 01:57:08;;;;;;;3.22;2.75;;;16.30;99.90;;;;;;5094439;28;20206;-62
2021/09/25 01:59:36;;;;;;;3.80;3.40;;;16.20;99.90;;;;;;5094265;28;20314;-62
2021/09/25 02:02:07;;;;;;;3.72;3.30;;;16.10;99.90;;;;;;5093770;28;20184;-62
2021/09/25 02:04:37;;;;;;;4.03;3.33;;;16.10;99.90;;;;;;5094108;28;20273;-62
2021/09/25 02:07:05;;;;;;;3.40;3.10;;;15.90;99.90;;;;;;5094083;28;20295;-62
2021/09/25 02:09:33;;;;;;;3.65;3.13;;;15.80;99.90;;;;;;5093732;28;20257;-62
2021/09/25 02:12:02;;;;;;;4.05;3.28;;;15.70;99.90;;;;;;5094111;28;20196;-62
2021/09/25 02:14:30;;;;;;;3.15;2.85;;;15.60;99.90;;;;;;5093866;28;20208;-61
2021/09/25 02:16:58;;;;;;;3.28;2.97;;;15.60;99.90;;;;;;5093374;28;20719;-62
2021/09/25 02:19:26;;;;;;;3.53;3.22;;;15.50;99.90;;;;;;5093511;28;20539;-61
2021/09/25 02:21:54;;;;;;;3.90;3.33;;;15.50;99.90;;;;;;5093517;28;20206;-62
2021/09/25 02:24:22;;;;;;;3.38;3.08;;;15.40;99.90;;;;;;5093995;28;20282;-61
2021/09/25 02:26:50;;;;;;;4.20;3.28;;;15.40;99.90;;;;;;5093553;28;20204;-62
2021/09/25 02:29:19;;;;;;;3.42;3.05;;;15.40;99.90;;;;;;5093481;28;20660;-62
2021/09/25 02:31:47;;;;;;;4.63;3.33;;;15.40;99.90;;;;;;5093526;28;20199;-61
2021/09/25 02:34:15;;;;;;;5.03;3.15;;;15.40;99.90;;;;;;5093578;28;20200;-61
2021/09/25 02:36:43;;;;;;;3.60;3.30;;;15.50;99.90;;;;;;5093634;28;20287;-61
2021/09/25 02:39:11;;;;;;;3.38;3.08;;;15.40;99.90;;;;;;5093396;28;20200;-62
2021/09/25 02:41:39;;;;;;;3.70;3.35;;;15.40;99.90;;;;;;5093565;28;20216;-62
2021/09/25 02:44:07;;;;;;;3.58;3.10;;;15.40;99.90;;;;;;5093522;28;20587;-61
2021/09/25 02:46:36;;;;;;;4.18;3.35;;;15.40;99.90;;;;;;5093111;28;20314;-61
2021/09/25 02:49:04;;;;;;;3.85;3.20;;;15.30;99.90;;;;;;5093187;28;20656;-62
2021/09/25 02:51:31;;;;;;;3.55;3.25;;;15.30;99.90;;;;;;5093419;28;20199;-61
2021/09/25 02:53:59;;;;;;;3.42;3.13;;;15.20;99.90;;;;;;5093154;28;20291;-61
2021/09/25 02:56:27;;;;;;;4.65;3.50;;;15.20;99.90;;;;;;5093349;28;20199;-60
2021/09/25 02:58:55;;;;;;;3.85;3.45;;;15.10;99.90;;;;;;5093281;28;20200;-61
2021/09/25 03:01:41;;;;;;;2.75;2.50;;;15.10;99.90;;;;;;5092762;28;20539;-61
2021/09/25 03:04:10;;;;;;;3.65;3.35;;;15.00;99.90;;;;;;5092673;28;20668;-62
2021/09/25 03:06:38;;;;;;;3.53;3.22;;;14.90;99.90;;;;;;5093085;28;20200;-61
2021/09/25 03:09:06;;;;;;;3.60;3.30;;;14.90;99.90;;;;;;5092769;28;20339;-61
2021/09/25 03:11:34;;;;;;;4.45;3.50;;;14.80;99.90;;;;;;5093061;28;20200;-61
2021/09/25 03:14:02;;;;;;;4.50;3.75;;;14.70;99.90;;;;;;5093183;28;20202;-61
2021/09/25 03:16:30;;;;;;;4.20;3.67;;;14.70;99.90;;;;;;5092683;28;20200;-61
2021/09/25 03:18:59;;;;;;;3.70;3.40;;;14.60;99.90;;;;;;5093049;28;20604;-61
2021/09/25 03:21:27;;;;;;;4.28;3.88;;;14.60;99.90;;;;;;5092880;28;20314;-61
2021/09/25 03:23:55;;;;;;;4.50;4.10;;;14.50;99.90;;;;;;5092849;28;20200;-61
2021/09/25 03:26:23;;;;;;;3.50;3.20;;;14.40;99.90;;;;;;5092974;28;20196;-60
2021/09/25 03:28:51;;;;;;;4.30;3.90;;;14.40;99.90;;;;;;5092723;28;20673;-60
2021/09/25 03:31:18;;;;;;;4.82;3.50;;;14.30;99.90;;;;;;5092567;28;20303;-61
2021/09/25 03:33:46;;;;;;;3.80;3.50;;;14.30;99.90;;;;;;5092583;28;20613;-61
2021/09/25 03:36:15;;;;;;;4.25;3.85;;;14.20;99.90;;;;;;5092606;28;20639;-61
2021/09/25 03:38:43;;;;;;;5.15;3.70;;;14.20;99.90;;;;;;5092760;28;20202;-61
2021/09/25 03:41:11;;;;;;;4.50;4.05;;;14.10;99.90;;;;;;5092745;28;20216;-61
2021/09/25 03:43:39;;;;;;;3.75;3.20;;;14.10;99.90;;;;;;5092846;28;20295;-61
2021/09/25 03:46:07;;;;;;;3.75;3.40;;;14.10;99.90;;;;;;5093153;28;20203;-61
2021/09/25 03:48:35;;;;;;;3.83;3.53;;;14.00;99.90;;;;;;5097058;28;20204;-61
2021/09/25 03:51:02;;;;;;;5.35;3.90;;;14.00;99.90;;;;;;5096981;28;20571;-62
2021/09/25 03:53:32;;;;;;;4.05;3.58;;;14.00;99.90;;;;;;5096337;28;20618;-61
2021/09/25 03:56:00;;;;;;;5.75;3.83;;;14.00;99.90;;;;;;5096573;28;20213;-61
2021/09/25 03:58:27;;;;;;;4.18;3.78;;;14.00;99.90;;;;;;5095784;28;20313;-62
2021/09/25 04:00:55;;;;;;;4.10;3.70;;;13.90;99.90;;;;;;5096283;28;20311;-62
2021/09/25 04:03:23;;;;;;;4.97;4.03;;;13.90;99.90;;;;;;5096633;28;20196;-61
2021/09/25 04:05:52;;;;;;;5.07;3.80;;;13.80;99.90;;;;;;5096754;28;20223;-61
2021/09/25 04:08:19;;;;;;;4.38;3.97;;;13.90;99.90;;;;;;5096123;28;20318;-61
2021/09/25 04:10:48;;;;;;;4.22;3.83;;;13.90;99.90;;;;;;5096502;28;20279;-62
2021/09/25 04:13:16;;;;;;;4.88;4.10;;;13.90;99.90;;;;;;5096561;28;20607;-63
2021/09/25 04:15:44;;;;;;;5.35;4.20;;;13.90;99.90;;;;;;5096164;28;20287;-61
2021/09/25 04:18:12;;;;;;;4.60;4.10;;;13.90;99.90;;;;;;5096340;28;20323;-61
2021/09/25 04:20:41;;;;;;;5.93;4.30;;;13.90;99.90;;;;;;5096260;28;20215;-61
2021/09/25 04:23:08;;;;;;;4.90;4.13;;;13.90;99.90;;;;;;5096164;28;20201;-61
2021/09/25 04:25:36;;;;;;;4.45;3.72;;;13.90;99.90;;;;;;5096206;28;20585;-62
2021/09/25 04:28:09;;;;;;;5.10;4.25;;;14.00;99.90;;;;;;5095871;28;20807;-61
2021/09/25 04:30:38;;;;;;;6.82;6.22;;;14.10;99.90;;;;;;5095556;28;20658;-63
2021/09/25 04:33:07;;;;;;;9.70;8.73;;;14.20;99.90;;;;;;5096034;28;20298;-61
2021/09/25 04:35:35;;;;;;;9.60;6.40;;;14.20;99.90;;;;;;5095766;28;20543;-63
2021/09/25 04:38:03;;;;;;;5.80;5.30;;;14.30;99.90;;;;;;5095692;28;20200;-62
2021/09/25 04:40:32;;;;;;;6.47;5.88;;;14.40;99.90;;;;;;5095817;28;20236;-62
2021/09/25 04:43:02;;;;;;;7.20;5.75;;;14.30;99.90;;;;;;5095773;28;20210;-61
2021/09/25 04:45:31;;;;;;;6.95;6.20;;;14.30;99.90;;;;;;5095417;28;20614;-62
2021/09/25 04:47:59;;;;;;;7.35;5.80;;;14.20;99.90;;;;;;5095506;28;20199;-61
2021/09/25 04:50:29;;;;;;;6.13;5.53;;;14.20;99.90;;;;;;5095478;28;20212;-62
2021/09/25 04:53:06;;;;;;;6.35;4.97;;;14.20;99.90;;;;;;5095653;28;20290;-61
2021/09/25 04:55:34;;;;;;;5.35;4.85;;;14.10;99.90;;;;;;5095259;28;20281;-62
2021/09/25 04:58:02;;;;;;;5.00;4.60;;;14.10;99.90;;;;;;5094000;28;20206;-61
2021/09/25 05:00:31;;;;;;;5.68;4.75;;;14.20;99.90;;;;;;5095047;28;20607;-61
2021/09/25 05:02:59;;;;;;;5.97;4.90;;;14.20;99.90;;;;;;5095295;28;20226;-61
2021/09/25 05:05:28;;;;;;;5.53;4.60;;;14.40;99.90;;;;;;5095306;28;20203;-62
2021/09/25 05:07:56;;;;;;;7.05;5.38;;;14.40;99.90;;;;;;5094946;28;20228;-62
2021/09/25 05:10:24;;;;;;;4.80;4.40;;;14.40;99.90;;;;;;5095137;28;20767;-61
2021/09/25 05:12:52;;;;;;;4.95;4.53;;;14.50;99.90;;;;;;5095078;28;20192;-61
2021/09/25 05:15:20;;;;;;;5.05;4.55;;;14.50;99.90;;;;;;5095070;28;20200;-61
2021/09/25 05:17:50;;;;;;;4.88;4.07;;;14.50;99.90;;;;;;5094937;28;20295;-61
2021/09/25 05:20:17;;;;;;;5.28;4.63;;;14.60;99.90;;;;;;5094963;28;20593;-62
2021/09/25 05:22:45;;;;;;;4.53;4.13;;;14.60;99.90;;;;;;5094848;28;20216;-61
2021/09/25 05:25:13;;;;;;;4.80;4.30;;;14.70;99.90;;;;;;5094819;28;20291;-62
2021/09/25 05:27:42;;;;;;;4.43;3.63;;;14.70;99.90;;;;;;5094728;28;20652;-62
2021/09/25 05:30:12;;;;;;;5.60;4.05;;;14.80;99.90;;;;;;5094771;28;20250;-61
2021/09/25 05:32:40;;;;;;;4.93;4.07;;;14.80;99.90;;;;;;5094619;28;20275;-61
2021/09/25 05:35:10;;;;;;;3.88;3.58;;;14.90;99.90;;;;;;5094781;28;20228;-62
2021/09/25 05:37:38;;;;;;;4.38;3.63;;;14.90;99.90;;;;;;5094663;28;20180;-61
2021/09/25 05:40:07;;;;;;;6.50;4.03;;;15.00;99.90;;;;;;5094648;28;20202;-62
2021/09/25 05:42:35;;;;;;;5.50;4.10;;;15.00;99.90;;;;;;5094343;28;20222;-61
2021/09/25 05:45:04;;;;;;;4.88;4.05;;;15.10;99.90;;;;;;5094596;28;20200;-61
2021/09/25 05:47:31;;;;;;;5.25;4.20;;;15.20;99.90;;;;;;5094417;28;20284;-62
2021/09/25 05:49:59;;;;;;;4.18;3.78;;;15.20;99.90;;;;;;5094586;28;20196;-62
2021/09/25 05:52:28;;;;;;;4.25;3.85;;;15.30;99.90;;;;;;5094226;28;20207;-62
2021/09/25 05:54:57;;;;;;;4.65;3.72;;;15.30;99.90;;;;;;5094290;28;20273;-62
2021/09/25 05:57:24;;;;;;;4.00;3.60;;;15.40;99.90;;;;;;5094150;28;20196;-62
2021/09/25 05:59:52;;;;;;;10.40;3.80;;;15.40;99.90;;;;;;5093937;28;20294;-62
2021/09/25 06:02:20;;;;;;;7.22;4.03;;;15.40;99.90;;;;;;5093751;28;20216;-62
2021/09/25 06:04:48;;;;;;;6.18;3.90;;;15.50;99.90;;;;;;5094251;28;20230;-61
2021/09/25 06:07:18;;;;;;;4.30;3.90;;;15.50;99.90;;;;;;5093733;28;20200;-62
2021/09/25 06:09:47;;;;;;;5.13;4.50;;;15.60;99.90;;;;;;5093720;28;20287;-61
2021/09/25 06:12:15;;;;;;;3.60;3.30;;;15.70;99.90;;;;;;5093857;28;20204;-61
2021/09/25 06:14:42;;;;;;;4.60;4.13;;;15.80;99.90;;;;;;5093915;28;20211;-60
2021/09/25 06:17:10;;;;;;;3.50;3.20;;;15.80;99.90;;;;;;5093734;28;20196;-61
2021/09/25 06:19:38;;;;;;;4.85;3.60;;;15.80;99.90;;;;;;5093546;28;20204;-61
2021/09/25 06:22:06;;;;;;;3.88;3.45;;;15.90;99.90;;;;;;5093878;28;20347;-61
2021/09/25 06:24:34;;;;;;;4.13;3.70;;;15.90;99.90;;;;;;5093538;28;20236;-62
2021/09/25 06:27:04;;;;;;;3.90;3.45;;;16.00;99.90;;;;;;5093192;28;20554;-60
2021/09/25 06:29:31;;;;;;;6.10;3.53;;;16.00;99.90;;;;;;5092748;28;20205;-61
2021/09/25 06:31:59;;;;;;;3.67;3.38;;;16.10;99.90;;;;;;5092903;28;20659;-61
2021/09/25 06:34:27;;;;;;;5.60;3.70;;;16.20;99.90;;;;;;5093530;28;20402;-62
2021/09/25 06:36:55;;;;;;;4.50;3.67;;;16.20;99.90;;;;;;5093638;28;20200;-61
2021/09/25 06:39:23;;;;;;;4.25;3.85;;;16.30;99.90;;;;;;5093323;28;20295;-60
2021/09/25 06:41:51;;;;;;;3.75;3.40;;;16.40;99.90;;;;;;5093309;28;20228;-62
2021/09/25 06:44:20;;;;;;;3.65;3.17;;;16.40;99.90;;;;;;5092496;28;20200;-61
2021/09/25 06:46:48;;;;;;;4.35;3.50;;;16.50;99.90;;;;;;5093070;28;20222;-61
2021/09/25 06:49:16;;;;;;;3.10;2.80;;;16.60;99.90;;;;;;5093028;28;20705;-61
2021/09/25 06:51:44;;;;;;;3.70;3.30;;;16.60;99.90;;;;;;5092851;28;20755;-62
2021/09/25 06:54:12;;;;;;;4.85;3.30;;;16.70;99.90;;;;;;5093035;28;20299;-62
2021/09/25 06:56:40;;;;;;;4.32;3.28;;;16.70;99.90;;;;;;5093104;28;20613;-61
2021/09/25 06:59:08;;;;;;;3.03;2.78;;;16.80;99.90;;;;;;5092909;28;20238;-60
2021/09/25 07:01:37;;;;;;;4.10;3.15;;;16.80;99.90;;;;;;5092555;28;20199;-61
2021/09/25 07:04:06;;;;;;;3.88;3.58;;;16.90;99.90;;;;;;5093093;28;20239;-60
2021/09/25 07:06:34;;;;;;;4.18;3.58;;;17.00;99.90;;;;;;5092821;28;20200;-61
2021/09/25 07:09:02;;;;;;;5.50;3.78;;;17.00;99.90;;;;;;5092567;28;20631;-61
2021/09/25 07:11:30;;;;;;;4.85;3.65;;;17.10;99.90;;;;;;5092712;28;20200;-62
2021/09/25 07:13:58;;;;;;;4.15;3.30;;;17.20;99.90;;;;;;5092504;28;20238;-63
2021/09/25 07:16:26;;;;;;;4.07;3.22;;;17.30;99.90;;;;;;5092731;28;20204;-61
2021/09/25 07:18:55;;;;;;;4.47;3.35;;;17.30;99.90;;;;;;5092862;28;20204;-63
2021/09/25 07:21:23;;;;;;;4.22;3.83;;;17.40;99.90;;;;;;5091762;28;20654;-62
2021/09/25 07:23:51;;;;;;;5.07;4.18;;;17.50;99.90;;;;;;5092247;28;20220;-60
2021/09/25 07:26:19;;;;;;;5.57;3.95;;;17.60;99.90;;;;;;5092842;28;20200;-62
2021/09/25 07:28:47;;;;;;;8.07;4.40;;;17.70;99.90;;;;;;5092475;28;20239;-62
2021/09/25 07:31:15;;;;;;;5.05;3.90;;;17.70;99.90;;;;;;5092378;28;20291;-63
2021/09/25 07:33:43;;;;;;;5.78;4.38;;;17.80;99.90;;;;;;5092955;28;20204;-61
2021/09/25 07:36:12;;;;;;;5.40;4.60;;;17.90;99.90;;;;;;5092572;28;20187;-61
2021/09/25 07:38:41;;;;;;;6.60;4.00;;;17.80;99.90;;;;;;5092554;28;20793;-62
2021/09/25 07:41:09;;;;;;;5.93;4.15;;;17.90;99.90;;;;;;5092720;28;20298;-62
2021/09/25 07:43:37;;;;;;;6.78;3.90;;;17.90;99.90;;;;;;5092053;28;20227;-62
2021/09/25 07:46:05;;;;;;;5.80;4.38;;;17.90;99.90;;;;;;5092587;28;20200;-62
2021/09/25 07:48:32;;;;;;;5.32;4.50;;;18.10;99.90;;;;;;5092759;28;20589;-62
2021/09/25 07:51:00;;;;;;;4.47;4.03;;;18.20;99.90;;;;;;5092625;28;20204;-61
2021/09/25 07:53:29;;;;;;;4.68;4.22;;;18.20;99.90;;;;;;5092046;28;20295;-62
2021/09/25 07:55:57;;;;;;;5.30;4.35;;;18.30;99.90;;;;;;5092496;28;20637;-61
2021/09/25 07:58:25;;;;;;;4.45;3.65;;;18.40;99.90;;;;;;5092168;28;20290;-62
2021/09/25 08:00:53;;;;;;;5.75;3.88;;;18.50;99.90;;;;;;5092199;28;20295;-61
2021/09/25 08:03:21;;;;;;;4.57;4.15;;;18.60;99.90;;;;;;5092318;28;20215;-61
2021/09/25 08:05:49;;;;;;;4.72;4.22;;;18.70;99.90;;;;;;5092164;28;20753;-62
2021/09/25 08:08:17;;;;;;;4.68;4.28;;;18.70;99.90;;;;;;5091968;28;20230;-61
2021/09/25 08:10:46;;;;;;;4.80;4.20;;;18.80;99.90;;;;;;5092476;28;20204;-62
2021/09/25 08:13:14;;;;;;;6.15;4.20;;;18.80;99.90;;;;;;5091976;28;20196;-60
2021/09/25 08:15:48;;;;;;;5.50;4.40;;;18.70;99.90;;;;;;5092270;28;20184;-63
2021/09/25 08:18:17;;;;;;;6.53;4.53;;;18.80;99.90;;;;;;5092157;28;20200;-62
2021/09/25 08:20:46;;;;;;;6.22;5.00;;;18.80;99.90;;;;;;5091940;28;20610;-60
2021/09/25 08:23:13;;;;;;;4.50;4.10;;;18.90;99.90;;;;;;5091781;28;20723;-62
2021/09/25 08:25:41;;;;;;;4.03;3.70;;;19.00;99.90;;;;;;5092188;28;20203;-63
2021/09/25 08:28:11;;;;;;;5.30;4.10;;;19.00;99.90;;;;;;5091839;28;20223;-62
2021/09/25 08:30:38;;;;;;;4.60;4.10;;;19.10;99.90;;;;;;5091839;28;20210;-62
2021/09/25 08:33:06;;;;;;;4.47;4.05;;;19.20;99.90;;;;;;5094175;28;20200;-62
2021/09/25 08:35:34;;;;;;;6.60;5.07;;;19.40;99.90;;;;;;5095850;28;20575;-63
2021/09/25 08:38:03;;;;;;;4.85;4.32;;;19.30;99.90;;;;;;5095564;28;20282;-63
2021/09/25 08:40:31;;;;;;;4.53;4.00;;;19.20;99.90;;;;;;5095825;28;20200;-61
2021/09/25 08:42:59;;;;;;;4.75;4.05;;;19.20;99.90;;;;;;5095141;28;20698;-61
2021/09/25 08:45:28;;;;;;;4.93;4.30;;;19.10;99.90;;;;;;5095705;28;20287;-61
2021/09/25 08:47:57;;;;;;;5.25;4.75;;;19.00;99.90;;;;;;5099620;28;20196;-62
2021/09/25 08:50:27;;;;;;;7.22;4.55;;;19.00;99.90;;;;;;5115838;28;20199;-62
2021/09/25 08:52:54;;;;;;;6.13;4.80;;;19.00;99.90;;;;;;5104457;28;20292;-63
2021/09/25 08:55:23;;;;;;;5.13;4.63;;;19.10;99.90;;;;;;5095389;28;20283;-61
2021/09/25 08:57:50;;;;;;;5.97;4.30;;;19.20;99.90;;;;;;5094586;28;20239;-63
2021/09/25 09:00:48;;;;;;;4.82;4.20;;;19.00;99.90;;;;;;5095234;28;20295;-62
2021/09/25 09:03:27;;;;;;;5.22;4.13;;;18.80;99.90;;;;;;5094654;28;20196;-63
2021/09/25 09:06:04;;;;;;;4.28;3.70;;;18.70;99.90;;;;;;5095096;28;20650;-63
2021/09/25 09:08:32;;;;;;;4.30;3.90;;;18.70;99.90;;;;;;5094759;28;20258;-64
2021/09/25 09:11:01;;;;;;;4.85;4.43;;;18.90;99.90;;;;;;5095152;28;20212;-61
2021/09/25 09:13:29;;;;;;;5.32;4.85;;;19.20;99.90;;;;;;5095152;28;20228;-63
2021/09/25 09:16:03;;;;;;;5.13;4.28;;;19.50;99.90;;;;;;5094877;28;20627;-63
2021/09/25 09:18:34;;;;;;;5.07;4.57;;;19.80;99.90;;;;;;5094787;28;20192;-62
2021/09/25 09:21:08;;;;;;;4.72;4.30;;;20.00;99.90;;;;;;5095236;28;20281;-62
2021/09/25 09:23:37;;;;;;;4.65;4.13;;;20.20;99.90;;;;;;5094765;28;20204;-62
2021/09/25 09:26:08;;;;;;;5.75;5.15;;;20.20;99.90;;;;;;5094720;28;20199;-62
2021/09/25 09:28:38;;;;;;;5.55;5.05;;;20.10;99.90;;;;;;5094574;28;20703;-62
2021/09/25 09:31:09;;;;;;;5.47;4.82;;;20.20;99.90;;;;;;5094761;28;20218;-62
2021/09/25 09:33:41;;;;;;;5.70;5.20;;;20.40;99.90;;;;;;5094329;28;20183;-61
2021/09/25 09:36:31;;;;;;;5.05;4.55;;;20.50;99.90;;;;;;5094686;28;20253;-62
2021/09/25 09:39:03;;;;;;;6.25;5.45;;;20.60;99.90;;;;;;5090142;28;20204;-63
2021/09/25 09:41:34;;;;;;;4.63;4.22;;;20.60;99.90;;;;;;5093875;28;20300;-62
2021/09/25 09:44:04;;;;;;;4.60;4.13;;;20.60;99.90;;;;;;5093650;28;20299;-64
2021/09/25 09:46:38;;;;;;;6.80;4.95;;;20.70;99.90;;;;;;5094162;28;20282;-63
2021/09/25 09:49:08;;;;;;;5.35;4.22;;;20.70;99.90;;;;;;5094059;28;20216;-65
2021/09/25 09:51:41;;;;;;;5.22;4.72;;;20.70;99.90;;;;;;5094539;28;20286;-62
2021/09/25 09:54:18;;;;;;;5.22;4.63;;;20.80;99.90;;;;;;5094107;28;20305;-63
2021/09/25 09:56:47;;;;;;;4.90;4.40;;;21.00;99.90;;;;;;5073652;28;20406;-62
2021/09/25 09:59:15;;;;;;;8.57;4.65;;;20.80;99.90;;;;;;5073775;28;20743;-63
2021/09/25 10:01:45;;;;;;;4.38;3.97;;;20.90;99.90;;;;;;5073827;28;20296;-62
2021/09/25 10:04:15;;;;;;;5.70;5.15;;;20.90;99.90;;;;;;5073594;28;20266;-62
2021/09/25 10:06:44;;;;;;;6.00;4.57;;;21.00;99.90;;;;;;5073855;28;20259;-63
2021/09/25 10:09:14;;;;;;;4.80;4.03;;;21.20;99.90;;;;;;5073441;28;20270;-63
2021/09/25 10:11:45;;;;;;;4.00;3.60;;;21.30;99.90;;;;;;5073480;28;20205;-64
2021/09/25 10:14:17;;;;;;;5.03;4.55;;;21.40;99.90;;;;;;5073600;28;20208;-63
2021/09/25 10:16:47;;;;;;;6.20;4.45;;;21.40;99.90;;;;;;5073458;28;20185;-63
2021/09/25 10:19:17;;;;;;;5.28;4.47;;;21.60;99.90;;;;;;5073247;28;20643;-62
2021/09/25 10:21:49;;;;;;;7.88;4.85;;;21.70;99.90;;;;;;5073597;28;20553;-63
2021/09/25 10:24:24;;;;;;;5.18;4.50;;;21.70;99.90;;;;;;5073016;28;20684;-62
2021/09/25 10:26:54;;;;;;;5.53;5.03;;;21.90;99.90;;;;;;5073019;28;20275;-63
2021/09/25 10:29:24;;;;;;;4.38;3.97;;;22.00;99.90;;;;;;5073207;28;20236;-64
2021/09/25 10:32:16;;;;;;;5.90;4.80;;;22.00;99.90;;;;;;5073104;28;20192;-62
2021/09/25 10:34:55;;;;;;;5.05;4.60;;;22.40;99.90;;;;;;5073431;28;20207;-63
2021/09/25 10:37:23;;;;;;;5.45;4.95;;;22.30;99.90;;;;;;5073323;28;20219;-62
2021/09/25 10:39:58;;;;;;;5.25;4.85;;;22.30;99.90;;;;;;5072585;28;20185;-63
2021/09/25 10:42:41;;;;;;;3.95;3.63;;;22.30;99.90;;;;;;5073243;28;20277;-62
2021/09/25 10:45:21;;;;;;;4.38;3.97;;;22.60;99.90;;;;;;5073092;28;20204;-63
2021/09/25 10:50:51;;;;;;;5.15;4.68;;;22.50;99.90;;;24.51;77.93;100270.91;5089725;27;20638;-63
2021/09/25 10:53:23;;;;;;;4.35;3.95;;;22.70;99.90;;;24.57;78.92;100266.09;5069585;28;20187;-61
2021/09/25 10:55:53;;;;;;;5.60;5.05;;;22.80;99.90;;;24.47;79.13;100263.56;5069615;28;20285;-62
2021/09/25 10:58:34;;;;;;;5.43;4.45;;;22.60;99.90;;;24.31;79.27;100276.03;5069479;28;20195;-62
2021/09/25 11:01:08;;;;;;;3.85;3.55;;;22.60;99.90;;;24.37;79.10;100270.09;5069834;28;20593;-61
2021/09/25 11:04:07;;;;;;;4.10;3.80;;;22.60;99.90;;;24.45;79.02;100269.41;5069783;28;20220;-60
2021/09/25 11:06:45;;;;;;;5.00;4.57;;;22.70;99.90;;;24.62;75.82;100274.25;5069550;28;20189;-62
2021/09/25 11:09:28;;;;;;;4.18;3.78;;;22.70;99.90;;;24.43;76.71;100274.38;5069452;28;20209;-63
2021/09/25 11:11:59;;;;;;;5.75;3.67;;;22.60;99.90;;;24.46;76.64;100270.19;5069367;28;20268;-61
2021/09/25 11:14:31;;;;;;;3.28;3.00;;;22.70;99.90;;;24.45;75.68;100282.34;5069538;28;20272;-61
2021/09/25 11:17:07;;;;;;;4.00;2.80;;;22.60;99.90;;;24.57;76.32;100279.88;5068915;28;20217;-61
2021/09/25 11:19:52;;;;;;;4.40;3.08;;;22.70;99.90;;;24.74;74.00;100280.09;5069117;28;20865;-62
2021/09/25 11:22:31;;;;;;;2.65;2.45;;;22.70;99.90;;;24.64;75.02;100274.78;5069447;28;20177;-62
2021/09/25 11:25:04;;;;;;;3.45;2.92;;;22.80;99.90;;;24.99;72.61;100277.56;5068855;28;20181;-61
2021/09/25 11:27:35;;;;;;;3.17;2.88;;;22.80;99.90;;;24.95;72.53;100284.00;5069295;28;20264;-61
2021/09/25 11:30:16;;;;;;;3.15;2.80;;;22.90;99.90;;;24.70;73.79;100276.31;5069281;28;20201;-61
2021/09/25 11:32:49;;;;;;;2.80;2.60;;;22.90;99.90;;;24.71;74.87;100276.00;5068991;28;20327;-61
2021/09/25 11:35:21;;;;;;;2.97;2.50;;;22.90;99.90;;;24.51;73.76;100278.34;5069092;28;20247;-62
2021/09/25 11:37:56;;;;;;;2.50;2.30;;;22.80;99.90;;;24.47;75.39;100278.16;5068942;28;20216;-62
2021/09/25 11:40:30;;;;;;;3.00;2.70;;;22.70;99.90;;;24.79;74.41;100275.28;5068452;28;20195;-62
2021/09/25 11:43:04;;;;;;;3.80;2.50;;;22.80;99.90;;;24.71;73.94;100278.75;5069103;28;20592;-62
2021/09/25 11:45:35;;;;;;;2.38;2.17;;;22.80;99.90;;;24.57;77.49;100269.69;5068827;28;20272;-61
2021/09/25 11:48:05;;;;;;;3.50;2.38;;;22.80;99.90;;;24.58;75.90;100282.31;5068710;28;20203;-61
2021/09/25 11:50:37;;;;;;;2.85;2.40;;;22.80;99.90;;;24.80;75.14;100282.41;5068281;28;20231;-62
2021/09/25 11:53:11;;;;;;;5.32;2.45;;;22.90;99.90;;;25.12;72.78;100273.09;5068666;28;20628;-61
2021/09/25 11:55:42;;;;;;;2.60;2.40;;;23.00;99.90;;;24.61;74.06;100276.19;5067990;28;20658;-61
2021/09/25 11:58:13;;;;;;;2.88;2.50;;;22.80;99.90;;;24.46;74.86;100273.78;5068556;28;20213;-61
2021/09/25 12:00:46;;;;;;;3.03;2.70;;;22.70;99.90;;;24.29;76.15;100278.28;5062654;28;20182;-61
2021/09/25 12:03:16;;;;;;;2.75;2.20;;;22.60;99.90;;;24.12;78.40;100278.09;5054406;28;20759;-62
2021/09/25 12:05:47;;;;;;;2.80;2.60;;;22.50;99.90;;;24.17;77.70;100267.75;5055380;28;20189;-62
2021/09/25 12:08:19;;;;;;;2.53;2.30;;;22.50;99.90;;;24.45;75.80;100274.09;5054961;28;20217;-62
2021/09/25 12:10:52;;;;;;;3.20;2.60;;;22.60;99.90;;;24.32;76.16;100272.16;5054901;28;20247;-62
2021/09/25 12:13:24;;;;;;;4.05;2.60;;;22.70;99.90;;;24.44;77.31;100272.47;5054887;28;20220;-62
2021/09/25 12:16:10;;;;;;;2.28;2.08;;;22.70;99.90;;;24.50;75.87;100268.47;5054975;28;20186;-62
2021/09/25 12:18:40;;;;;;;3.20;2.33;;;22.70;99.90;;;24.45;74.75;100271.31;5055268;28;20232;-62
2021/09/25 12:21:11;;;;;;;1.92;1.80;;;22.60;99.90;;;24.38;77.66;100268.16;5055032;28;20251;-62
2021/09/25 12:23:45;;;;;;;2.15;2.00;;;22.60;99.90;;;24.41;77.81;100256.53;5054388;28;20589;-62
2021/09/25 12:26:18;;;;;;;2.88;2.30;;;22.60;99.90;;;24.54;77.24;100258.47;5054173;28;20307;-61
2021/09/25 12:28:48;;;;;;;2.55;2.35;;;22.60;99.90;;;24.56;73.14;100262.53;5054288;28;20710;-61
2021/09/25 12:31:21;;;;;;;2.50;2.30;;;22.60;99.90;;;24.31;74.44;100262.25;5053915;28;20304;-60
2021/09/25 12:33:56;;;;;;;2.67;1.92;;;22.60;99.90;;;24.68;74.40;100259.22;5052130;28;20186;-62
2021/09/25 12:36:27;;;;;;;2.30;2.10;;;22.80;99.90;;;24.92;73.10;100259.81;5054925;28;20185;-61